Time;durP1;ratioP1;P1;durP2;ratioP2;P2;SDS_P1;SDS_P2;PMS_P1;PMS_P2;Temp;Humidity;BMP_temperature;BMP_pressure;BME280_temperature;BME280_humidity;BME280_pressure;Samples;Min_cycle;Max_cycle;Signal;HPM_P1;HPM_P2
2021/04/06 00:05:48;;;;;;;7.40;0.87;;;11.50;99.90;;;;;;20772389;23;20234;-72
2021/04/06 00:15:53;;;;;;;0.20;0.20;;;11.50;99.90;;;;;;20730712;28;20222;-73
2021/04/06 00:25:57;;;;;;;1.27;1.17;;;11.50;99.90;;;;;;20730349;28;20209;-73
2021/04/06 00:36:03;;;;;;;2.13;0.93;;;11.40;99.90;;;;;;20730944;28;20293;-72
2021/04/06 00:46:10;;;;;;;1.93;0.40;;;11.70;99.90;;;;;;20824794;28;20292;-72
2021/04/06 00:56:14;;;;;;;0.70;0.70;;;11.80;99.90;;;;;;20826728;28;20229;-74
2021/04/06 01:06:17;;;;;;;20.40;2.03;;;11.70;99.90;;;;;;20826600;28;20229;-75
2021/04/06 01:16:21;;;;;;;0.83;0.80;;;11.60;99.90;;;;;;20807457;28;20571;-74
2021/04/06 01:26:25;;;;;;;0.80;0.80;;;11.50;99.90;;;;;;20824079;28;20277;-71
2021/04/06 01:36:28;;;;;;;0.60;0.60;;;11.50;99.90;;;;;;20822685;28;20218;-71
2021/04/06 01:46:40;;;;;;;14.53;2.13;;;11.70;99.90;;;;;;20805474;28;20201;-71
2021/04/06 01:56:47;;;;;;;1.93;1.60;;;11.80;99.90;;;;;;20821063;28;20608;-71
2021/04/06 02:06:52;;;;;;;13.50;2.43;;;12.20;99.90;;;;;;20821971;28;20226;-71
2021/04/06 02:16:57;;;;;;;0.83;0.50;;;12.30;99.90;;;;;;20802806;28;20236;-72
2021/04/06 02:27:06;;;;;;;1.20;0.77;;;12.10;99.90;;;;;;20820282;28;20198;-73
2021/04/06 02:37:18;;;;;;;1.33;0.97;;;12.20;99.90;;;;;;20801090;28;20222;-73
2021/04/06 02:47:22;;;;;;;0.70;0.70;;;11.90;99.90;;;;;;20818045;28;20549;-72
2021/04/06 02:57:26;;;;;;;5.77;1.43;;;11.90;99.90;;;;;;20817252;28;20230;-70
2021/04/06 03:07:45;;;;;;;1.57;1.47;;;12.00;99.90;;;;;;20818044;28;20272;-73
2021/04/06 03:17:52;;;;;;;2.30;1.07;;;12.10;99.90;;;;;;20816032;28;20316;-73
2021/04/06 03:27:57;;;;;;;1.70;1.30;;;11.90;99.90;;;;;;20798492;28;20593;-73
2021/04/06 03:38:01;;;;;;;0.63;0.63;;;12.40;99.90;;;;;;20796975;28;20217;-71
2021/04/06 03:48:06;;;;;;;0.83;0.83;;;12.20;99.90;;;;;;20814025;28;20522;-73
2021/04/06 03:58:13;;;;;;;1.33;1.00;;;12.10;99.90;;;;;;20813764;28;20229;-72
2021/04/06 04:08:16;;;;;;;1.23;1.07;;;12.00;99.90;;;;;;20814904;28;20253;-72
2021/04/06 04:18:19;;;;;;;10.53;2.20;;;11.90;99.90;;;;;;20804636;28;20720;-72
2021/04/06 04:28:23;;;;;;;0.57;0.50;;;11.90;99.90;;;;;;20828875;28;20828;-74
2021/04/06 04:38:26;;;;;;;1.30;0.77;;;12.00;99.90;;;;;;20828025;28;20226;-73
2021/04/06 04:48:30;;;;;;;1.10;1.10;;;11.90;99.90;;;;;;20746336;28;20198;-72
2021/04/06 04:58:32;;;;;;;2.00;0.93;;;11.80;99.90;;;;;;20744870;28;20310;-76
2021/04/06 05:08:35;;;;;;;1.40;1.13;;;11.20;99.90;;;;;;20743443;28;20230;-74
2021/04/06 05:18:38;;;;;;;1.27;1.17;;;11.80;99.90;;;;;;20743710;28;20227;-73
2021/04/06 05:28:44;;;;;;;0.90;0.87;;;12.20;99.90;;;;;;20741516;28;20195;-74
2021/04/06 05:38:47;;;;;;;1.57;0.93;;;12.00;99.90;;;;;;20698967;28;20650;-74
2021/04/06 05:48:51;;;;;;;1.57;1.23;;;11.90;99.90;;;;;;20640420;28;20282;-74
2021/04/06 05:58:58;;;;;;;0.60;0.60;;;12.10;99.90;;;;;;20654089;28;20295;-75
2021/04/06 06:09:03;;;;;;;2.30;0.90;;;12.40;99.90;;;;;;20652657;28;20223;-74
2021/04/06 06:19:08;;;;;;;0.50;0.50;;;12.30;99.90;;;;;;20635137;28;20235;-72
2021/04/06 06:29:15;;;;;;;2.13;1.20;;;12.10;99.90;;;;;;20655792;28;20732;-73
2021/04/06 06:39:18;;;;;;;2.00;0.83;;;12.60;99.90;;;;;;20682265;28;20234;-71
2021/04/06 06:49:34;;;;;;;0.70;0.70;;;12.70;99.90;;;;;;20732808;28;20199;-74
2021/04/06 06:59:40;;;;;;;4.10;1.43;;;12.90;99.90;;;;;;20733336;28;20246;-71
2021/04/06 07:09:45;;;;;;;1.57;1.47;;;13.50;99.90;;;;;;20735565;28;20238;-71
2021/04/06 07:19:48;;;;;;;11.80;2.33;;;14.00;99.90;;;;;;20711850;28;20218;-71
2021/04/06 07:29:53;;;;;;;2.63;1.23;;;14.30;99.90;;;;;;20731196;28;20187;-71
2021/04/06 07:40:02;;;;;;;0.30;0.30;;;14.40;99.90;;;;;;20732052;28;20219;-69
2021/04/06 07:50:13;;;;;;;0.20;0.20;;;14.60;99.90;;;;;;20728287;28;20570;-70
2021/04/06 08:00:52;;;;;;;0.63;0.40;;;14.80;99.90;;;;;;20725624;28;20714;-71
2021/04/06 08:10:55;;;;;;;0.77;0.50;;;14.90;99.90;;;;;;20721941;28;20226;-70
2021/04/06 08:21:10;;;;;;;3.23;1.13;;;15.10;99.90;;;;;;20710953;28;20226;-70
2021/04/06 08:31:37;;;;;;;0.50;0.50;;;15.30;99.90;;;;;;20725853;28;20194;-70
2021/04/06 08:41:41;;;;;;;0.93;0.87;;;15.30;99.90;;;;;;20692475;28;20253;-70
2021/04/06 08:51:47;;;;;;;1.73;1.63;;;15.50;99.90;;;;;;20725714;28;20273;-72
2021/04/06 09:02:21;;;;;;;0.80;0.43;;;15.80;99.90;;;;;;20750756;28;20771;-77
2021/04/06 09:12:27;;;;;;;0.30;0.30;;;15.80;99.90;;;;;;20748236;28;20194;-73
2021/04/06 09:22:30;;;;;;;44.53;1.87;;;15.90;99.90;;;;;;20801956;28;20237;-71
2021/04/06 09:32:34;;;;;;;9.63;0.87;;;15.90;99.90;;;;;;20821171;28;20198;-71
2021/04/06 09:42:37;;;;;;;1.77;0.77;;;15.80;99.90;;;;;;20795107;28;20226;-73
2021/04/06 09:52:48;;;;;;;1.70;1.33;;;15.80;99.90;;;;;;20738475;28;20305;-72
2021/04/06 10:03:05;;;;;;;6.80;1.77;;;15.70;99.90;;;;;;20728591;28;20533;-71
2021/04/06 10:13:09;;;;;;;1.20;1.03;;;16.10;99.90;;;;;;20733258;28;20202;-71
2021/04/06 10:23:13;;;;;;;1.43;1.17;;;16.10;99.90;;;;;;20717844;28;20313;-70
2021/04/06 10:33:28;;;;;;;3.17;1.80;;;16.30;99.90;;;;;;20709243;28;20381;-73
2021/04/06 10:43:34;;;;;;;5.03;1.97;;;16.30;99.90;;;;;;20682685;28;20704;-71
2021/04/06 10:53:41;;;;;;;0.40;0.40;;;16.40;99.90;;;;;;20771844;28;20630;-73
2021/04/06 11:03:49;;;;;;;0.77;0.73;;;16.50;99.90;;;;;;20730766;28;20576;-71
2021/04/06 11:14:02;;;;;;;1.00;0.90;;;16.50;99.90;;;;;;20730046;28;20202;-73
2021/04/06 11:24:06;;;;;;;0.83;0.80;;;16.40;99.90;;;;;;20730275;28;20198;-73
2021/04/06 11:34:16;;;;;;;0.47;0.30;;;16.60;99.90;;;;;;20728895;28;20191;-74
2021/04/06 11:44:19;;;;;;;1.13;0.93;;;16.60;99.90;;;;;;20798823;28;20195;-74
2021/04/06 11:54:24;;;;;;;0.40;0.40;;;16.70;99.90;;;;;;20739557;28;20207;-73
2021/04/06 12:04:29;;;;;;;18.87;2.07;;;16.90;99.90;;;;;;20713148;28;20265;-71
2021/04/06 12:14:33;;;;;;;2.43;1.03;;;17.50;99.90;;;;;;20729063;28;20221;-69
2021/04/06 12:24:36;;;;;;;2.37;1.03;;;19.10;99.90;;;;;;20726398;28;20658;-72
2021/04/06 12:34:41;;;;;;;6.57;1.63;;;19.20;99.90;;;;;;20720379;28;20249;-72
2021/04/06 12:44:47;;;;;;;1.33;1.10;;;19.70;99.90;;;;;;20811471;28;20226;-75
2021/04/06 12:54:50;;;;;;;2.53;1.33;;;18.20;99.90;;;;;;20822537;28;20232;-72
2021/04/06 13:04:53;;;;;;;3.33;1.33;;;20.50;99.90;;;;;;20740411;28;20238;-71
2021/04/06 13:14:57;;;;;;;0.77;0.67;;;20.30;99.90;;;;;;20737866;28;20277;-72
2021/04/06 13:25:03;;;;;;;6.33;0.83;;;19.60;99.90;;;;;;20737177;28;20227;-74
2021/04/06 13:35:10;;;;;;;7.23;2.10;;;19.90;99.90;;;;;;20737573;28;20210;-72
2021/04/06 13:45:15;;;;;;;0.60;0.60;;;20.00;99.90;;;;;;20811998;28;20682;-72
2021/04/06 13:55:37;;;;;;;0.53;0.53;;;19.20;99.90;;;;;;20800223;28;20521;-71
2021/04/06 14:05:41;;;;;;;0.73;0.70;;;21.50;99.90;;;;;;20778802;28;20234;-72
2021/04/06 14:15:48;;;;;;;0.70;0.70;;;21.20;99.90;;;;;;20732885;28;20233;-73
2021/04/06 14:25:51;;;;;;;14.30;1.70;;;18.90;99.90;;;;;;20732586;28;20219;-71
2021/04/06 14:36:01;;;;;;;4.03;0.97;;;17.80;99.90;;;;;;20732635;28;20199;-72
2021/04/06 14:46:06;;;;;;;0.40;0.40;;;17.20;99.90;;;;;;20812477;28;20257;-71
2021/04/06 14:56:22;;;;;;;4.13;1.73;;;18.70;99.90;;;;;;20733296;28;20257;-73
2021/04/06 15:06:27;;;;;;;0.70;0.50;;;21.00;99.90;;;;;;20707130;28;20293;-72
2021/04/06 15:16:30;;;;;;;3.83;0.90;;;21.40;99.90;;;;;;20687003;28;20250;-71
2021/04/06 15:26:33;;;;;;;2.83;1.30;;;19.40;99.90;;;;;;20645537;28;20624;-76
2021/04/06 15:36:37;;;;;;;2.47;0.87;;;18.20;99.90;;;;;;20660015;28;20497;-75
2021/04/06 15:46:40;;;;;;;0.90;0.50;;;18.50;99.90;;;;;;20719375;28;20228;-69
2021/04/06 15:56:45;;;;;;;1.07;1.00;;;18.10;99.90;;;;;;20724074;28;20230;-72
2021/04/06 16:06:49;;;;;;;2.37;1.30;;;17.80;99.90;;;;;;20745605;28;20596;-71
2021/04/06 16:16:53;;;;;;;0.57;0.50;;;17.80;99.90;;;;;;20736861;28;20250;-71
2021/04/06 16:26:56;;;;;;;1.27;1.13;;;17.00;99.90;;;;;;20739187;28;20301;-71
2021/04/06 16:37:00;;;;;;;1.30;1.20;;;17.10;99.90;;;;;;20748142;28;20202;-72
2021/04/06 16:47:03;;;;;;;14.73;1.23;;;17.10;99.90;;;;;;20777489;28;20306;-73
2021/04/06 16:57:07;;;;;;;3.33;1.20;;;16.70;99.90;;;;;;20738576;28;20202;-72
2021/04/06 17:07:10;;;;;;;12.77;3.77;;;16.40;99.90;;;;;;20706232;28;20274;-71
2021/04/06 17:17:15;;;;;;;2.07;1.87;;;16.30;99.90;;;;;;20655983;28;20649;-71
2021/04/06 17:27:18;;;;;;;0.43;0.43;;;16.00;99.90;;;;;;20636931;28;20259;-72
2021/04/06 17:37:22;;;;;;;2.30;1.00;;;16.00;99.90;;;;;;20744901;28;20276;-72
2021/04/06 17:47:32;;;;;;;1.80;0.90;;;15.80;99.90;;;;;;20816594;28;20518;-73
2021/04/06 17:57:36;;;;;;;0.77;0.43;;;15.70;99.90;;;;;;20814113;28;20190;-73
2021/04/06 18:07:40;;;;;;;3.97;1.80;;;15.70;99.90;;;;;;20733569;28;20231;-73
2021/04/06 18:17:45;;;;;;;5.23;2.07;;;15.50;99.90;;;;;;20734989;28;20206;-71
2021/04/06 18:27:48;;;;;;;0.70;0.70;;;15.50;99.90;;;;;;20733223;28;20225;-73
2021/04/06 18:37:52;;;;;;;1.70;1.07;;;15.70;99.90;;;;;;20748211;28;20293;-73
2021/04/06 18:47:55;;;;;;;1.37;1.27;;;15.60;99.90;;;;;;20814706;28;20742;-72
2021/04/06 18:58:00;;;;;;;2.10;0.67;;;15.40;99.90;;;;;;20813616;28;20645;-73
2021/04/06 19:08:06;;;;;;;0.30;0.27;;;15.40;99.90;;;;;;20811512;28;20230;-73
2021/04/06 19:18:15;;;;;;;7.73;1.47;;;15.40;99.90;;;;;;20812005;28;20264;-72
2021/04/06 19:28:18;;;;;;;2.10;0.93;;;15.30;99.90;;;;;;20792132;28;20271;-75
2021/04/06 19:38:23;;;;;;;1.13;0.50;;;15.30;99.90;;;;;;20775015;28;20229;-72
2021/04/06 19:48:27;;;;;;;0.40;0.40;;;15.20;99.90;;;;;;20808782;28;20405;-72
2021/04/06 19:58:31;;;;;;;2.67;0.93;;;15.20;99.90;;;;;;20809062;28;20190;-73
2021/04/06 20:08:34;;;;;;;0.97;0.43;;;15.20;99.90;;;;;;20790641;28;20773;-71
2021/04/06 20:18:40;;;;;;;1.23;1.00;;;15.00;99.90;;;;;;20791822;28;20301;-72
2021/04/06 20:29:02;;;;;;;0.80;0.77;;;14.90;99.90;;;;;;20808172;28;20209;-71
2021/04/06 20:39:07;;;;;;;2.53;0.77;;;15.10;99.90;;;;;;20802710;28;20191;-73
2021/04/06 20:59:28;;;;;;;0.40;0.40;;;15.10;99.90;;;;;;21370720;23;20230;-73
2021/04/06 21:09:31;;;;;;;2.73;2.13;;;15.10;99.90;;;;;;20824114;28;20257;-72
2021/04/06 21:19:35;;;;;;;1.60;1.50;;;14.90;99.90;;;;;;20737308;28;20235;-72
2021/04/06 21:29:38;;;;;;;1.80;0.93;;;15.00;99.90;;;;;;20701536;28;20230;-70
2021/04/06 21:39:42;;;;;;;1.37;1.20;;;14.80;99.90;;;;;;20779607;28;20527;-70
2021/04/06 21:49:44;;;;;;;2.77;1.33;;;14.70;99.90;;;;;;20740659;28;20301;-70
2021/04/06 21:59:48;;;;;;;0.83;0.77;;;14.70;99.90;;;;;;20808878;28;20222;-70
2021/04/06 22:09:51;;;;;;;1.40;0.70;;;14.70;99.90;;;;;;20820952;28;20237;-71
2021/04/06 22:19:55;;;;;;;3.43;1.47;;;14.90;99.90;;;;;;20820435;28;20247;-71
2021/04/06 22:29:57;;;;;;;0.97;0.40;;;14.80;99.90;;;;;;20819541;28;20265;-70
2021/04/06 22:40:01;;;;;;;4.00;0.70;;;14.70;99.90;;;;;;20814052;28;20190;-70
2021/04/06 22:50:07;;;;;;;0.20;0.10;;;14.60;99.90;;;;;;20818218;28;20218;-71
2021/04/06 23:00:13;;;;;;;0.37;0.37;;;14.00;99.90;;;;;;20816941;28;20250;-72
2021/04/06 23:10:21;;;;;;;0.20;0.10;;;13.60;99.90;;;;;;20816747;28;20261;-71
2021/04/06 23:20:25;;;;;;;0.50;0.50;;;13.40;99.90;;;;;;20782248;28;20622;-71
2021/04/06 23:30:36;;;;;;;2.17;0.50;;;12.80;99.90;;;;;;20797765;28;20703;-74
2021/04/06 23:40:40;;;;;;;0.30;0.30;;;12.50;99.90;;;;;;20796700;28;20189;-70
2021/04/06 23:50:43;;;;;;;0.60;0.50;;;12.00;99.90;;;;;;20814033;28;20713;-71
